EDSBLSZA

Guest
Details From EDSB - Karlsruhe Baden Baden
To LSZA - Lugano
Flight Number -
Tags generated
Created
Modified
Stats Distance 170 nm / 315 km
Max Altitude 15,300 ft / 4,663 m
Waypoints 3
Social Downloads 4
Likes 0
Share VATSIM

Download

Looking for another format? Having issues loading an existing format? Contact us
Advertisement - Login to hide

Notes

Basic altitude profile: - Ascent Rate: 600ft/min - Ascent Speed: 80kts - Cruise Altitude: 12000ft - Cruise Speed: 120kts - Descent Rate: 600ft/min - Descent Speed: 100kts Options: - Use NATs: yes - Use PACOTS: yes - Use low airways: yes - Use high airways: yes

Route

EDSB ALBIX LSZA

ID Type Via Altitude Latitude Longitude Leg Dist Tot Dist Heading (true) Name
O EDSB APT - 0 ft / 0 m 48.77926˚ 8.08064˚ - 0 nm - Karlsruhe Baden Baden
ALBIX FIX - 15,300 ft / 4,663 m 47.24972˚ 8.56444˚ 93 nm 93 nm 168° / 168° -
O LSZA APT - 0 ft / 0 m 46.00428˚ 8.91058˚ 76 nm 170 nm 169° / 169° Lugano

Altitude Profile

Advertisement - Login to hide

Weather


0- 5 10 15 20 25 30 35+ Temperature / ° C

Clouds and Precipitation
Forecast for 2018-05-27 12:00 UTC. Updated 3 hours ago

Ground ~20,000 ft ~40,000 ft Winds

EDSB

Details ICAO EDSB (FKB)
Name Karlsruhe Baden Baden
Region Germany - Civil
Timezone Europe/Berlin (UTC+2.0)
Stats Elevation 408 ft / 124 m (AMSL)
Location 48.779257° 8.080642°
Runways 1
Magnetic Variation 2.280° E

METAR

EDSB 271350Z 25006KT 200V300 CAVOK 28/15 Q1016

Decode

TAF

TAF EDSB 271100Z 2712/2812 VRB03KT 9999 FEW040 BECMG 2712/2715 02005KT PROB30 TEMPO 2712/2720 20015G25KT 3000 TSRAGR BKN040CB

Decode

Departure Runways

ID Width Length Bearing (true) Bearing (mag) Surface Threshold Offset Overrun Length
03 148 ft / 45 m 9,799 ft / 2,987 m 31.69° 29.41° Asphalt 830 ft / 253 m 115 ft / 35 m
21 148 ft / 45 m 9,799 ft / 2,987 m 211.70° 209.42° Asphalt 830 ft / 253 m 115 ft / 35 m

LSZA

Details ICAO LSZA (LUG)
Name Lugano
Region Switzerland
Timezone Europe/Zurich (UTC+2.0)
Stats Elevation 915 ft / 279 m (AMSL)
Location 46.004275° 8.910579°
Runways 1
Magnetic Variation 2.476° E

METAR

LSZA 271420Z 19006KT 9999 FEW060 29/16 Q1016 NOSIG

Decode

TAF

Not found

Destination Runways

ID Width Length Bearing (true) Bearing (mag) Surface Threshold Offset Overrun Length
01 98 ft / 30 m 4,430 ft / 1,350 m 18.79° 16.31° Asphalt 361 ft / 110 m 0 ft / 0 m
19 98 ft / 30 m 4,430 ft / 1,350 m 198.79° 196.31° Asphalt 673 ft / 205 m 0 ft / 0 m

Approach Navaids

Runway Type Ident Frequency Range Bearing (true) Bearing (mag) Slope Elevation
01 Localiser ILU 111.50 MHz 18 nm / 33 km 18.79° 16.31° - 928 ft / 283 m (AMSL)
01 Glidescope ILU 111.50 MHz 10 nm / 19 km 19.99° 17.51° 6.00° 928 ft / 283 m (AMSL)
01 DME ILU 111.50 MHz 18 nm / 33 km - - - 928 ft / 283 m (AMSL)